createdAt,value
2022-11-07T00:00:32.514Z,69.68
2022-11-07T00:03:00.571Z,69.43
2022-11-07T00:05:28.209Z,69.50
2022-11-07T00:07:55.826Z,69.28
2022-11-07T00:10:23.530Z,69.19
2022-11-07T00:12:51.230Z,69.40
2022-11-07T00:15:19.463Z,69.52
2022-11-07T00:17:47.070Z,70.01
2022-11-07T00:20:14.649Z,70.11
2022-11-07T00:22:42.270Z,69.79
2022-11-07T00:25:10.274Z,70.35
2022-11-07T00:27:38.250Z,70.05
2022-11-07T00:30:05.872Z,70.62
2022-11-07T00:32:33.893Z,70.39
2022-11-07T00:35:01.910Z,70.50
2022-11-07T00:37:29.540Z,71.16
2022-11-07T00:39:57.193Z,70.97
2022-11-07T00:42:24.762Z,70.94
2022-11-07T00:44:52.575Z,71.17
2022-11-07T00:47:20.171Z,70.88
2022-11-07T00:49:49.183Z,71.16
2022-11-07T00:52:17.136Z,71.03
2022-11-07T00:54:45.105Z,70.84
2022-11-07T00:57:22.765Z,71.53
2022-11-07T01:00:13.699Z,71.60
2022-11-07T01:03:08.925Z,71.60
2022-11-07T01:05:35.810Z,71.29
2022-11-07T01:08:03.408Z,71.60
2022-11-07T01:10:31.365Z,71.78
2022-11-07T01:12:58.945Z,71.98
2022-11-07T01:15:27.631Z,71.31
2022-11-07T01:17:55.165Z,71.34
2022-11-07T01:20:22.732Z,71.43
2022-11-07T01:22:52.687Z,71.27
2022-11-07T01:25:20.225Z,71.59
2022-11-07T01:27:48.552Z,70.79
2022-11-07T01:30:16.081Z,71.35
2022-11-07T01:32:43.658Z,71.78
2022-11-07T01:35:12.572Z,71.09
2022-11-07T01:37:40.135Z,71.07
2022-11-07T01:40:08.059Z,71.67
2022-11-07T01:42:35.665Z,72.24
2022-11-07T01:45:03.185Z,72.21
2022-11-07T01:47:31.530Z,72.23
2022-11-07T01:49:59.161Z,72.59
2022-11-07T01:52:26.887Z,72.14
2022-11-07T01:54:54.413Z,71.68
2022-11-07T01:57:22.177Z,72.52
2022-11-07T01:59:50.215Z,72.52
2022-11-07T02:02:17.948Z,72.38
2022-11-07T02:04:46.089Z,72.44
2022-11-07T02:07:13.647Z,73.12
2022-11-07T02:09:41.260Z,72.77
2022-11-07T02:12:09.282Z,73.24
2022-11-07T02:14:36.894Z,72.85
2022-11-07T02:17:04.877Z,73.37
2022-11-07T02:19:32.838Z,72.79
2022-11-07T02:22:00.351Z,73.43
2022-11-07T02:24:27.898Z,72.88
2022-11-07T02:26:55.444Z,73.12
2022-11-07T02:29:23.375Z,73.43
2022-11-07T02:31:50.913Z,73.33
2022-11-07T02:34:18.463Z,73.50
2022-11-07T02:36:46.026Z,73.34
2022-11-07T02:39:13.578Z,73.90
2022-11-07T02:41:41.515Z,73.98
2022-11-07T02:44:09.073Z,73.80
2022-11-07T02:46:36.604Z,73.58
2022-11-07T02:49:04.640Z,73.57
2022-11-07T02:51:32.176Z,73.85
2022-11-07T02:54:00.117Z,73.92
2022-11-07T02:56:27.677Z,74.22
2022-11-07T02:58:55.197Z,73.84
2022-11-07T03:01:23.297Z,73.98
2022-11-07T03:03:51.311Z,73.60
2022-11-07T03:06:19.241Z,73.63
2022-11-07T03:08:46.765Z,73.65
2022-11-07T03:11:26.351Z,73.91
2022-11-07T03:13:55.079Z,73.57
2022-11-07T03:16:23.013Z,73.79
2022-11-07T03:18:50.611Z,74.15
2022-11-07T03:21:18.184Z,73.62
2022-11-07T03:23:45.718Z,74.17
2022-11-07T03:26:13.277Z,73.56
2022-11-07T03:28:41.213Z,73.73
2022-11-07T03:31:08.719Z,74.11
2022-11-07T03:33:36.323Z,73.83
2022-11-07T03:36:03.863Z,73.94
2022-11-07T03:38:31.378Z,73.56
2022-11-07T03:40:59.284Z,73.39
2022-11-07T03:43:26.814Z,73.26
2022-11-07T03:45:54.822Z,73.55
2022-11-07T03:48:22.388Z,73.85
2022-11-07T03:50:49.940Z,73.47
2022-11-07T03:53:23.872Z,74.14
2022-11-07T03:55:52.935Z,74.08
2022-11-07T03:58:20.476Z,73.62
2022-11-07T04:00:49.668Z,73.50
2022-11-07T04:03:17.564Z,73.62
2022-11-07T04:05:45.613Z,74.00
2022-11-07T04:08:13.128Z,73.75
2022-11-07T04:10:40.741Z,74.01
2022-11-07T04:13:25.848Z,73.77
2022-11-07T04:16:16.438Z,73.88
2022-11-07T04:18:45.063Z,73.44
2022-11-07T04:21:12.643Z,73.91
2022-11-07T04:23:40.164Z,73.92
2022-11-07T04:26:25.589Z,73.26
2022-11-07T04:28:59.681Z,73.57
2022-11-07T04:31:27.268Z,73.30
2022-11-07T04:33:54.800Z,73.29
2022-11-07T04:36:22.345Z,73.35
2022-11-07T04:38:50.268Z,73.56
2022-11-07T04:41:17.794Z,73.37
2022-11-07T04:43:45.445Z,73.83
2022-11-07T04:46:13.040Z,73.29
2022-11-07T04:48:40.554Z,73.83
2022-11-07T04:51:08.778Z,73.58
2022-11-07T04:53:36.367Z,73.82
2022-11-07T04:56:03.908Z,73.99
2022-11-07T04:58:31.445Z,73.58
2022-11-07T05:00:59.063Z,73.97
2022-11-07T05:03:27.048Z,73.90
2022-11-07T05:05:55.114Z,73.82
2022-11-07T05:08:22.696Z,73.67
2022-11-07T05:10:50.306Z,74.09
2022-11-07T05:13:18.675Z,73.92
2022-11-07T05:15:46.594Z,73.70
2022-11-07T05:18:14.134Z,73.88
2022-11-07T05:20:41.697Z,73.86
2022-11-07T05:23:16.091Z,73.82
2022-11-07T05:25:43.938Z,73.66
2022-11-07T05:28:11.908Z,73.79
2022-11-07T05:30:39.544Z,73.96
2022-11-07T05:33:07.061Z,74.06
2022-11-07T05:35:34.938Z,74.07
2022-11-07T05:38:02.504Z,74.20
2022-11-07T05:40:30.432Z,73.85
2022-11-07T05:42:59.436Z,74.65
2022-11-07T05:45:26.991Z,74.47
2022-11-07T05:47:54.550Z,74.52
2022-11-07T05:50:22.126Z,74.18
2022-11-07T05:52:50.100Z,74.76
2022-11-07T05:55:18.655Z,74.81
2022-11-07T05:57:46.589Z,74.53
2022-11-07T06:00:14.143Z,74.53
2022-11-07T06:02:41.802Z,74.36
2022-11-07T06:05:09.840Z,74.85
2022-11-07T06:07:37.458Z,74.52
2022-11-07T06:10:05.007Z,74.11
2022-11-07T06:12:32.532Z,74.45
2022-11-07T06:15:00.181Z,74.74
2022-11-07T06:17:27.712Z,74.61
2022-11-07T06:20:00.141Z,74.51
2022-11-07T06:22:27.745Z,74.82
2022-11-07T06:24:56.477Z,74.36
2022-11-07T06:27:24.060Z,74.35
2022-11-07T06:29:52.037Z,74.72
2022-11-07T06:32:21.576Z,74.39
2022-11-07T06:34:49.115Z,74.22
2022-11-07T06:37:16.729Z,74.26
2022-11-07T06:39:44.236Z,74.23
2022-11-07T06:42:12.543Z,73.85
2022-11-07T06:44:41.274Z,74.03
2022-11-07T06:47:08.812Z,73.83
2022-11-07T06:49:36.363Z,74.15
2022-11-07T06:52:03.995Z,73.59
2022-11-07T06:54:31.945Z,73.34
2022-11-07T06:56:59.527Z,73.72
2022-11-07T06:59:27.217Z,72.92
2022-11-07T07:01:54.823Z,73.39
2022-11-07T07:04:22.742Z,73.43
2022-11-07T07:06:50.750Z,73.09
2022-11-07T07:09:18.476Z,72.92
2022-11-07T07:11:46.224Z,72.65
2022-11-07T07:14:13.924Z,72.56
2022-11-07T07:16:41.450Z,72.75
2022-11-07T07:19:09.422Z,72.30
2022-11-07T07:21:38.055Z,72.53
2022-11-07T07:24:05.682Z,72.07
2022-11-07T07:26:33.524Z,72.68
2022-11-07T07:29:01.289Z,72.43
2022-11-07T07:31:29.317Z,71.66
2022-11-07T07:33:57.053Z,72.14
2022-11-07T07:36:24.895Z,71.42
2022-11-07T07:38:52.525Z,71.65
2022-11-07T07:41:20.119Z,71.12
2022-11-07T07:43:48.106Z,71.11
2022-11-07T07:46:15.823Z,71.66
2022-11-07T07:48:43.762Z,71.16
2022-11-07T07:51:11.395Z,71.03
2022-11-07T07:53:39.123Z,70.62
2022-11-07T07:56:07.936Z,70.87
2022-11-07T07:58:35.677Z,70.85
2022-11-07T08:01:03.661Z,70.36
2022-11-07T08:03:50.687Z,70.71
2022-11-07T08:06:19.637Z,70.58
2022-11-07T08:08:47.358Z,70.38
2022-11-07T08:11:15.121Z,70.66
2022-11-07T08:13:42.882Z,69.92
2022-11-07T08:16:10.794Z,69.83
2022-11-07T08:18:40.407Z,70.26
2022-11-07T08:21:09.010Z,70.54
2022-11-07T08:23:36.772Z,69.68
2022-11-07T08:26:04.808Z,69.34
2022-11-07T08:28:32.776Z,69.57
2022-11-07T08:31:01.325Z,69.33
2022-11-07T08:33:29.346Z,69.28
2022-11-07T08:35:57.368Z,69.35
2022-11-07T08:38:25.361Z,69.14
2022-11-07T08:40:53.413Z,69.22
2022-11-07T08:43:21.480Z,69.38
2022-11-07T08:45:50.796Z,68.80
2022-11-07T08:48:18.604Z,69.30
2022-11-07T08:50:46.508Z,68.84
2022-11-07T08:53:14.618Z,69.15
2022-11-07T08:55:42.734Z,68.78
2022-11-07T08:58:10.547Z,69.50
2022-11-07T09:00:38.420Z,69.47
2022-11-07T09:05:54.223Z,68.87
2022-11-07T09:08:21.961Z,69.29
2022-11-07T09:10:49.766Z,69.00
2022-11-07T09:13:18.285Z,69.65
2022-11-07T09:15:50.969Z,69.40
2022-11-07T09:18:20.055Z,68.64
2022-11-07T09:20:47.854Z,69.03
2022-11-07T09:23:16.083Z,68.69
2022-11-07T09:25:44.293Z,68.49
2022-11-07T09:28:12.027Z,68.93
2022-11-07T09:30:40.173Z,68.49
2022-11-07T09:33:08.073Z,69.06
2022-11-07T09:35:36.256Z,68.98
2022-11-07T09:38:04.078Z,68.87
2022-11-07T09:40:31.843Z,69.12
2022-11-07T09:43:00.038Z,69.04
2022-11-07T09:45:27.819Z,69.26
2022-11-07T09:47:55.643Z,69.08
2022-11-07T09:50:23.505Z,69.08
2022-11-07T09:52:51.430Z,69.03
2022-11-07T09:55:19.740Z,69.44
2022-11-07T09:57:47.781Z,68.76
2022-11-07T10:00:16.217Z,69.24
2022-11-07T10:02:44.129Z,69.43
2022-11-07T10:05:11.900Z,68.96
2022-11-07T10:07:40.320Z,69.41
2022-11-07T10:10:09.609Z,69.02
2022-11-07T10:12:41.777Z,68.82
2022-11-07T10:15:12.169Z,69.00
2022-11-07T10:17:40.270Z,69.52
2022-11-07T10:20:08.079Z,69.58
2022-11-07T10:22:36.005Z,69.55
2022-11-07T10:25:03.966Z,69.98
2022-11-07T10:27:33.024Z,69.91
2022-11-07T10:30:01.303Z,69.81
2022-11-07T10:32:29.098Z,69.66
2022-11-07T10:34:57.711Z,69.40
2022-11-07T10:37:25.779Z,69.37
2022-11-07T10:39:53.689Z,69.93
2022-11-07T10:42:21.859Z,70.82
2022-11-07T10:44:49.666Z,71.39
2022-11-07T10:47:18.128Z,72.03
2022-11-07T10:49:45.963Z,71.73
2022-11-07T10:52:13.851Z,71.68
2022-11-07T10:54:42.252Z,71.49
2022-11-07T10:57:10.098Z,71.91
2022-11-07T10:59:41.674Z,72.36
2022-11-07T11:02:09.560Z,72.61
2022-11-07T11:04:37.502Z,73.29
2022-11-07T11:07:05.647Z,74.00
2022-11-07T11:09:33.452Z,73.95
2022-11-07T11:12:01.384Z,74.57
2022-11-07T11:14:29.365Z,74.35
2022-11-07T11:16:57.330Z,75.25
2022-11-07T11:19:25.467Z,74.83
2022-11-07T11:21:53.537Z,75.02
2022-11-07T11:24:21.369Z,74.58
2022-11-07T11:26:49.323Z,74.36
2022-11-07T11:29:17.290Z,74.26
2022-11-07T11:31:45.518Z,74.11
2022-11-07T11:34:13.361Z,74.23
2022-11-07T11:36:41.304Z,74.70
2022-11-07T11:39:09.633Z,74.22
2022-11-07T11:41:37.582Z,74.00
2022-11-07T11:44:06.072Z,73.75
2022-11-07T11:46:34.007Z,73.71
2022-11-07T11:49:04.069Z,73.48
2022-11-07T11:51:32.061Z,72.92
2022-11-07T11:53:59.858Z,73.15
2022-11-07T11:56:28.522Z,73.09
2022-11-07T11:58:56.450Z,72.37
2022-11-07T12:03:57.149Z,71.87
2022-11-07T12:06:25.398Z,72.33
2022-11-07T12:08:53.611Z,72.00
2022-11-07T12:11:21.493Z,72.24
2022-11-07T12:13:51.117Z,72.11
2022-11-07T12:16:19.103Z,71.64
2022-11-07T12:18:47.158Z,70.87
2022-11-07T12:21:15.070Z,71.13
2022-11-07T12:23:43.052Z,70.50
2022-11-07T12:26:11.843Z,70.70
2022-11-07T12:28:40.258Z,70.79
2022-11-07T12:31:08.247Z,71.42
2022-11-07T12:33:36.941Z,71.53
2022-11-07T12:36:04.855Z,71.30
2022-11-07T12:38:32.678Z,71.49
2022-11-07T12:41:00.492Z,71.68
2022-11-07T12:43:28.473Z,71.46
2022-11-07T12:45:56.590Z,71.39
2022-11-07T12:48:24.777Z,71.61
2022-11-07T12:50:56.291Z,71.73
2022-11-07T12:53:24.172Z,71.77
2022-11-07T12:55:51.955Z,71.66
2022-11-07T12:58:20.243Z,71.69
2022-11-07T13:00:48.008Z,70.82
2022-11-07T13:03:16.134Z,70.77
2022-11-07T13:05:44.316Z,70.33
2022-11-07T13:08:12.115Z,70.73
2022-11-07T13:10:40.850Z,70.44
2022-11-07T13:13:09.125Z,69.37
2022-11-07T13:15:54.109Z,68.89
2022-11-07T13:18:24.857Z,68.72
2022-11-07T13:20:52.816Z,68.21
2022-11-07T13:23:20.671Z,68.13
2022-11-07T13:25:50.229Z,67.91
2022-11-07T13:28:18.289Z,68.09
2022-11-07T13:30:46.132Z,67.97
2022-11-07T13:33:14.815Z,68.05
2022-11-07T13:35:42.928Z,67.75
2022-11-07T13:38:10.709Z,68.24
2022-11-07T13:40:38.636Z,68.18
2022-11-07T13:43:06.469Z,68.28
2022-11-07T13:45:34.747Z,68.54
2022-11-07T13:48:02.609Z,68.38
2022-11-07T13:50:30.384Z,68.46
2022-11-07T13:52:58.149Z,67.98
2022-11-07T13:55:26.366Z,68.28
2022-11-07T13:57:54.148Z,67.83
2022-11-07T14:00:21.963Z,67.56
2022-11-07T14:02:51.447Z,67.55
2022-11-07T14:05:19.318Z,67.15
2022-11-07T14:07:47.072Z,67.41
2022-11-07T14:10:15.514Z,67.33
2022-11-07T14:12:43.397Z,67.89
2022-11-07T14:15:11.744Z,67.97
2022-11-07T14:17:39.929Z,68.29
2022-11-07T14:20:07.996Z,68.17
2022-11-07T14:22:36.334Z,68.45
2022-11-07T14:25:04.527Z,68.52
2022-11-07T14:27:34.261Z,68.69
2022-11-07T14:30:01.999Z,68.93
2022-11-07T14:32:32.093Z,68.50
2022-11-07T14:35:00.741Z,68.54
2022-11-07T14:37:28.668Z,68.94
2022-11-07T14:39:56.682Z,69.03
2022-11-07T14:42:24.548Z,69.00
2022-11-07T14:44:54.885Z,68.58
2022-11-07T14:47:23.523Z,68.67
2022-11-07T14:49:51.378Z,69.06
2022-11-07T14:52:19.263Z,69.04
2022-11-07T14:54:47.259Z,69.28
2022-11-07T14:57:15.110Z,69.21
2022-11-07T14:59:44.305Z,69.33
2022-11-07T15:02:12.249Z,68.99
2022-11-07T15:04:43.161Z,68.85
2022-11-07T15:07:10.953Z,69.48
2022-11-07T15:09:40.976Z,69.27
2022-11-07T15:12:08.846Z,69.40
2022-11-07T15:14:36.626Z,69.09
2022-11-07T15:17:05.604Z,69.08
2022-11-07T15:19:33.504Z,69.45
2022-11-07T15:22:01.767Z,69.25
2022-11-07T15:24:30.449Z,69.31
2022-11-07T15:26:58.206Z,69.89
2022-11-07T15:29:26.158Z,69.92
2022-11-07T15:31:54.080Z,69.87
2022-11-07T15:34:39.249Z,70.10
2022-11-07T15:37:10.734Z,70.05
2022-11-07T15:39:38.657Z,70.11
2022-11-07T15:42:06.473Z,69.98
2022-11-07T15:44:36.013Z,70.27
2022-11-07T15:47:03.969Z,70.63
2022-11-07T15:49:32.603Z,70.42
2022-11-07T15:52:00.607Z,70.57
2022-11-07T15:54:28.516Z,70.36
2022-11-07T15:56:58.473Z,70.71
2022-11-07T15:59:26.653Z,70.73
2022-11-07T16:01:54.622Z,70.90
2022-11-07T16:04:23.037Z,70.84
2022-11-07T16:06:50.911Z,70.10
2022-11-07T16:09:19.020Z,70.61
2022-11-07T16:11:46.722Z,70.17
2022-11-07T16:14:42.395Z,70.70
2022-11-07T16:17:04.006Z,70.78
2022-11-07T16:19:31.788Z,70.19
2022-11-07T16:21:59.778Z,71.00
2022-11-07T16:24:29.110Z,70.63
2022-11-07T16:26:57.122Z,71.01
2022-11-07T16:29:28.199Z,70.58
2022-11-07T16:31:56.822Z,70.32
2022-11-07T16:34:24.775Z,70.29
2022-11-07T16:36:52.700Z,70.42
2022-11-07T16:39:21.097Z,70.45
2022-11-07T16:41:50.846Z,70.63
2022-11-07T16:44:24.761Z,70.55
2022-11-07T16:46:55.040Z,70.04
2022-11-07T16:49:22.946Z,70.19
2022-11-07T16:51:52.129Z,70.14
2022-11-07T16:54:19.964Z,70.16
2022-11-07T16:56:51.420Z,70.45
2022-11-07T16:59:19.707Z,70.14
2022-11-07T17:01:47.830Z,70.35
2022-11-07T17:04:16.659Z,69.89
2022-11-07T17:06:47.741Z,70.00
2022-11-07T17:09:16.922Z,70.04
2022-11-07T17:11:44.853Z,70.36
2022-11-07T17:14:12.822Z,70.58
2022-11-07T17:16:40.734Z,69.98
2022-11-07T17:19:08.670Z,70.29
2022-11-07T17:21:37.101Z,70.38
2022-11-07T17:24:05.757Z,69.71
2022-11-07T17:26:34.823Z,70.07
2022-11-07T17:29:07.343Z,70.47
2022-11-07T17:31:35.193Z,70.14
2022-11-07T17:34:02.976Z,69.90
2022-11-07T17:36:36.768Z,70.50
2022-11-07T17:39:05.286Z,70.05
2022-11-07T17:41:33.222Z,70.10
2022-11-07T17:44:01.148Z,70.18
2022-11-07T17:46:28.962Z,70.41
2022-11-07T17:48:57.258Z,69.77
2022-11-07T17:51:26.920Z,70.22
2022-11-07T17:53:54.845Z,70.44
2022-11-07T17:56:22.838Z,70.19
2022-11-07T17:58:50.723Z,70.33
2022-11-07T18:01:21.599Z,70.50
2022-11-07T18:03:49.709Z,70.48
2022-11-07T18:06:17.601Z,70.28
2022-11-07T18:08:52.047Z,70.52
2022-11-07T18:11:20.685Z,70.69
2022-11-07T18:13:48.951Z,70.26
2022-11-07T18:16:17.679Z,70.33
2022-11-07T18:18:45.702Z,70.47
2022-11-07T18:21:13.600Z,70.30
2022-11-07T18:23:41.586Z,69.80
2022-11-07T18:26:09.639Z,69.95
2022-11-07T18:28:37.497Z,69.86
2022-11-07T18:31:05.800Z,70.09
2022-11-07T18:33:33.675Z,70.45
2022-11-07T18:36:01.589Z,70.23
2022-11-07T18:38:29.802Z,69.92
2022-11-07T18:40:59.585Z,70.26
2022-11-07T18:43:27.452Z,70.35
2022-11-07T18:45:55.328Z,70.28
2022-11-07T18:48:23.250Z,70.19
2022-11-07T18:50:51.524Z,69.99
2022-11-07T18:53:24.605Z,70.89
2022-11-07T18:55:52.486Z,70.71
2022-11-07T18:58:20.471Z,70.95
2022-11-07T19:00:48.801Z,70.52
2022-11-07T19:03:17.391Z,70.21
2022-11-07T19:05:45.566Z,70.40
2022-11-07T19:08:13.562Z,70.56
2022-11-07T19:10:41.600Z,70.69
2022-11-07T19:13:09.516Z,70.12
2022-11-07T19:15:38.374Z,70.55
2022-11-07T19:18:09.561Z,70.61
2022-11-07T19:20:37.510Z,70.74
2022-11-07T19:26:16.279Z,70.71
2022-11-07T19:28:44.197Z,70.51
2022-11-07T19:31:24.455Z,70.92
2022-11-07T19:33:52.591Z,70.24
2022-11-07T19:36:22.276Z,70.26
2022-11-07T19:38:50.341Z,70.48
2022-11-07T19:41:18.168Z,70.86
2022-11-07T19:43:48.738Z,70.79
2022-11-07T19:46:16.671Z,70.28
2022-11-07T19:48:44.774Z,70.64
2022-11-07T19:51:20.998Z,70.40
2022-11-07T19:53:49.177Z,70.49
2022-11-07T19:56:17.209Z,70.63
2022-11-07T19:58:45.777Z,70.86
2022-11-07T20:01:15.126Z,70.46
2022-11-07T20:03:42.979Z,70.58
2022-11-07T20:06:10.925Z,70.69
2022-11-07T20:08:38.893Z,71.00
2022-11-07T20:11:07.107Z,70.94
2022-11-07T20:13:35.882Z,70.73
2022-11-07T20:16:03.837Z,70.64
2022-11-07T20:18:32.182Z,70.75
2022-11-07T20:21:00.072Z,70.96
2022-11-07T20:23:28.364Z,71.05
2022-11-07T20:25:56.280Z,70.74
2022-11-07T20:28:24.055Z,71.32
2022-11-07T20:30:54.752Z,71.04
2022-11-07T20:33:22.508Z,70.50
2022-11-07T20:35:50.675Z,70.62
2022-11-07T20:38:20.178Z,70.86
2022-11-07T20:40:48.097Z,70.56
2022-11-07T20:43:16.603Z,71.02
2022-11-07T20:45:44.848Z,71.06
2022-11-07T20:48:13.174Z,71.18
2022-11-07T20:50:41.976Z,70.50
2022-11-07T20:53:09.926Z,71.26
2022-11-07T20:55:37.818Z,71.15
2022-11-07T20:58:05.686Z,70.95
2022-11-07T21:00:34.145Z,71.30
2022-11-07T21:03:02.853Z,71.30
2022-11-07T21:05:30.707Z,71.48
2022-11-07T21:07:58.676Z,71.99
2022-11-07T21:10:26.476Z,70.98
2022-11-07T21:12:54.376Z,71.95
2022-11-07T21:15:22.841Z,71.40
2022-11-07T21:17:50.640Z,71.81
2022-11-07T21:20:18.692Z,72.09
2022-11-07T21:22:47.140Z,71.91
2022-11-07T21:25:17.416Z,72.19
2022-11-07T21:27:48.189Z,71.57
2022-11-07T21:30:17.137Z,72.05
2022-11-07T21:32:45.070Z,72.24
2022-11-07T21:35:13.523Z,72.29
2022-11-07T21:37:41.657Z,72.50
2022-11-07T21:40:10.973Z,72.68
2022-11-07T21:42:39.063Z,72.35
2022-11-07T21:45:07.232Z,72.63
2022-11-07T21:47:35.040Z,72.64
2022-11-07T21:50:23.941Z,72.62
2022-11-07T21:52:52.090Z,72.72
2022-11-07T21:55:19.963Z,72.83
2022-11-07T21:57:47.715Z,73.07
2022-11-07T22:00:15.706Z,73.49
2022-11-07T22:02:57.747Z,73.16
2022-11-07T22:05:25.884Z,73.07
2022-11-07T22:07:53.775Z,73.88
2022-11-07T22:10:22.033Z,73.68
2022-11-07T22:12:50.874Z,73.22
2022-11-07T22:15:18.585Z,73.60
2022-11-07T22:17:46.274Z,73.36
2022-11-07T22:20:13.919Z,73.48
2022-11-07T22:22:42.230Z,73.50
2022-11-07T22:25:09.908Z,74.05
2022-11-07T22:27:38.594Z,74.03
2022-11-07T22:30:09.227Z,73.57
2022-11-07T22:32:36.997Z,73.81
2022-11-07T22:35:08.943Z,73.74
2022-11-07T22:37:37.098Z,73.74
2022-11-07T22:40:04.836Z,73.69
2022-11-07T22:42:34.260Z,73.79
2022-11-07T22:45:02.000Z,74.48
2022-11-07T22:47:30.120Z,73.95
2022-11-07T22:49:58.312Z,74.71
2022-11-07T22:52:26.044Z,74.11
2022-11-07T22:54:53.779Z,74.08
2022-11-07T22:57:21.480Z,74.80
2022-11-07T22:59:49.384Z,74.32
2022-11-07T23:02:17.089Z,74.72
2022-11-07T23:04:44.799Z,74.75
2022-11-07T23:07:12.583Z,74.72
2022-11-07T23:09:40.238Z,74.22
2022-11-07T23:12:08.221Z,74.31
2022-11-07T23:14:36.016Z,74.38
2022-11-07T23:17:03.793Z,74.90
2022-11-07T23:19:31.973Z,74.92
2022-11-07T23:21:59.689Z,74.65
2022-11-07T23:24:27.913Z,74.74
2022-11-07T23:26:55.574Z,74.69
2022-11-07T23:29:23.248Z,74.90
2022-11-07T23:31:51.507Z,75.53
2022-11-07T23:34:19.570Z,74.79
2022-11-07T23:36:47.604Z,75.46
2022-11-07T23:39:15.775Z,75.37
2022-11-07T23:41:43.430Z,75.06
2022-11-07T23:44:13.435Z,75.90
2022-11-07T23:46:58.957Z,75.56
2022-11-07T23:49:52.318Z,75.23
2022-11-07T23:52:19.955Z,76.00
2022-11-07T23:55:05.392Z,75.63
2022-11-07T23:57:35.021Z,75.56
